Time;durP1;ratioP1;P1;durP2;ratioP2;P2;SDS_P1;SDS_P2;PMS_P1;PMS_P2;Temp;Humidity;BMP_temperature;BMP_pressure;BME280_temperature;BME280_humidity;BME280_pressure;Samples;Min_cycle;Max_cycle;Signal;HPM_P1;HPM_P2
2024/02/29 00:01:36;;;;;;;14.70;5.45;;;;;;;;;;7413255;19;19927;-78
2024/02/29 00:04:21;;;;;;;;;;;;;;;;;;7413139;19;19941;-77
2024/02/29 00:07:12;;;;;;;11.40;5.10;;;;;;;;;;7408191;19;20337;-77
2024/02/29 00:10:01;;;;;;;15.05;5.80;;;;;;;;;;7410178;19;19934;-77
2024/02/29 00:12:48;;;;;;;15.25;5.50;;;;;;;;;;7408367;19;19925;-77
2024/02/29 00:15:35;;;;;;;13.15;5.53;;;;;;;;;;7411139;19;19918;-79
2024/02/29 00:18:21;;;;;;;13.15;4.93;;;;;;;;;;7410870;19;19922;-78
2024/02/29 00:21:10;;;;;;;13.00;5.70;;;;;;;;;;7409298;19;19922;-78
2024/02/29 00:23:57;;;;;;;;;;;;;;;;;;7410263;19;19937;-78
2024/02/29 00:26:43;;;;;;;9.20;4.22;;;;;;;;;;7405722;19;19927;-78
2024/02/29 00:29:30;;;;;;;13.18;4.60;;;;;;;;;;7408942;19;19977;-78
2024/02/29 00:32:16;;;;;;;11.25;4.78;;;;;;;;;;7409496;19;19957;-78
2024/02/29 00:35:04;;;;;;;15.30;5.28;;;;;;;;;;7408308;19;20013;-78
2024/02/29 00:37:51;;;;;;;11.85;4.78;;;;;;;;;;7410533;19;20280;-78
2024/02/29 00:40:40;;;;;;;12.25;4.88;;;;;;;;;;7407917;19;19928;-78
2024/02/29 00:43:24;;;;;;;12.13;4.90;;;;;;;;;;7409599;19;19907;-79
2024/02/29 00:46:11;;;;;;;12.18;4.88;;;;;;;;;;7406478;19;19918;-78
2024/02/29 00:48:57;;;;;;;12.15;4.82;;;;;;;;;;7409510;19;20389;-78
2024/02/29 00:51:44;;;;;;;11.43;4.70;;;;;;;;;;7408093;19;19910;-78
2024/02/29 00:54:30;;;;;;;13.40;4.55;;;;;;;;;;7408913;19;20285;-78
2024/02/29 00:57:17;;;;;;;17.10;6.18;;;;;;;;;;7406404;19;19926;-78
2024/02/29 01:00:11;;;;;;;10.32;4.88;;;;;;;;;;7407328;19;20348;-78
2024/02/29 01:02:56;;;;;;;10.80;4.47;;;;;;;;;;7408401;19;19914;-78
2024/02/29 01:05:40;;;;;;;;;;;;;;;;;;7411305;19;19915;-78
2024/02/29 01:08:24;;;;;;;7.68;4.00;;;;;;;;;;7412692;19;19923;-78
2024/02/29 01:11:11;;;;;;;8.60;3.80;;;;;;;;;;7411378;19;20313;-78
2024/02/29 01:14:03;;;;;;;10.82;5.15;;;;;;;;;;7411681;19;20317;-78
2024/02/29 01:16:51;;;;;;;12.93;4.22;;;;;;;;;;7412423;19;19907;-78
2024/02/29 01:19:37;;;;;;;10.18;5.00;;;;;;;;;;7413546;19;21301;-78
2024/02/29 01:22:24;;;;;;;11.45;4.90;;;;;;;;;;7412341;19;19915;-78
2024/02/29 01:25:12;;;;;;;11.98;4.20;;;;;;;;;;7413840;19;19926;-78
2024/02/29 01:27:56;;;;;;;10.73;4.95;;;;;;;;;;7412425;19;19914;-78
2024/02/29 01:30:45;;;;;;;14.65;4.85;;;;;;;;;;7413494;19;19953;-78
2024/02/29 01:33:32;;;;;;;9.77;4.80;;;;;;;;;;7415717;19;19971;-78
2024/02/29 01:36:19;;;;;;;13.00;4.85;;;;;;;;;;7413438;19;20350;-78
2024/02/29 01:39:03;;;;;;;12.02;5.47;;;;;;;;;;7414480;19;19925;-78
2024/02/29 01:41:47;;;;;;;;;;;;;;;;;;7417225;19;19911;-78
2024/02/29 01:44:34;;;;;;;8.50;4.15;;;;;;;;;;7414322;19;19932;-78
2024/02/29 01:47:24;;;;;;;11.05;4.15;;;;;;;;;;7413461;19;19923;-79
2024/02/29 01:50:13;;;;;;;19.38;5.20;;;;;;;;;;7413769;19;19928;-78
2024/02/29 01:53:02;;;;;;;12.05;4.40;;;;;;;;;;7413130;19;19970;-79
2024/02/29 01:55:51;;;;;;;11.63;4.85;;;;;;;;;;7414862;19;19910;-78
2024/02/29 01:58:36;;;;;;;;;;;;;;;;;;7416482;19;19922;-78
2024/02/29 02:01:22;;;;;;;12.57;4.47;;;;;;;;;;7414346;19;19917;-79
2024/02/29 02:04:09;;;;;;;8.85;4.00;;;;;;;;;;7413841;19;19922;-79
2024/02/29 02:07:01;;;;;;;9.98;4.53;;;;;;;;;;7415459;19;20297;-79
2024/02/29 02:09:46;;;;;;;10.30;3.83;;;;;;;;;;7415117;19;20321;-79
2024/02/29 02:12:29;;;;;;;;;;;;;;;;;;7414967;19;19915;-79
2024/02/29 02:15:14;;;;;;;9.88;4.07;;;;;;;;;;7412041;19;20324;-79
2024/02/29 02:17:58;;;;;;;7.07;3.72;;;;;;;;;;7413356;19;19910;-79
2024/02/29 02:20:45;;;;;;;9.93;4.57;;;;;;;;;;7411982;19;20251;-79
2024/02/29 02:23:35;;;;;;;11.48;3.85;;;;;;;;;;7411504;19;19922;-79
2024/02/29 02:26:19;;;;;;;;;;;;;;;;;;7413095;19;19922;-78
2024/02/29 02:29:04;;;;;;;7.18;3.58;;;;;;;;;;7413594;19;19918;-79
2024/02/29 02:31:50;;;;;;;11.05;4.85;;;;;;;;;;7412204;19;19923;-79
2024/02/29 02:34:37;;;;;;;12.07;4.45;;;;;;;;;;7412669;19;19917;-78
2024/02/29 02:37:26;;;;;;;10.68;4.63;;;;;;;;;;7410376;19;19911;-78
2024/02/29 02:40:11;;;;;;;9.75;5.05;;;;;;;;;;7412908;19;19917;-78
2024/02/29 02:43:00;;;;;;;9.52;4.53;;;;;;;;;;7413330;19;19911;-78
2024/02/29 02:45:47;;;;;;;9.82;4.63;;;;;;;;;;7409751;19;19927;-79
2024/02/29 02:48:39;;;;;;;12.55;4.95;;;;;;;;;;7412130;19;19910;-79
2024/02/29 02:51:27;;;;;;;10.35;4.20;;;;;;;;;;7412205;19;19923;-79
2024/02/29 02:54:16;;;;;;;;;;;;;;;;;;7412488;19;19911;-78
2024/02/29 02:57:00;;;;;;;7.40;3.90;;;;;;;;;;7410666;19;19917;-78
2024/02/29 02:59:47;;;;;;;12.48;4.97;;;;;;;;;;7413316;19;20620;-78
2024/02/29 03:02:37;;;;;;;11.75;4.55;;;;;;;;;;7412827;19;19930;-78
2024/02/29 03:05:24;;;;;;;10.90;4.05;;;;;;;;;;7409102;19;20341;-78
2024/02/29 03:08:09;;;;;;;8.77;4.70;;;;;;;;;;7411399;19;19923;-79
2024/02/29 03:10:58;;;;;;;8.77;4.32;;;;;;;;;;7410531;19;19918;-79
2024/02/29 03:13:43;;;;;;;13.45;4.60;;;;;;;;;;7411159;19;19914;-80
2024/02/29 03:16:29;;;;;;;11.15;4.70;;;;;;;;;;7410265;19;20321;-79
2024/02/29 03:19:14;;;;;;;11.02;4.35;;;;;;;;;;7410931;19;20269;-78
2024/02/29 03:21:58;;;;;;;;;;;;;;;;;;7413310;19;19945;-78
2024/02/29 03:24:45;;;;;;;10.55;4.15;;;;;;;;;;7409780;19;20001;-78
2024/02/29 03:27:35;;;;;;;13.18;5.32;;;;;;;;;;7409939;19;19919;-78
2024/02/29 03:30:21;;;;;;;12.40;3.90;;;;;;;;;;7407702;19;19926;-78
2024/02/29 03:33:06;;;;;;;9.85;4.95;;;;;;;;;;7415797;19;19919;-78
2024/02/29 03:35:50;;;;;;;;;;;;;;;;;;7418727;19;19911;-79
2024/02/29 03:38:34;;;;;;;11.55;4.18;;;;;;;;;;7416397;19;19914;-78
2024/02/29 03:41:20;;;;;;;9.25;4.00;;;;;;;;;;7413212;19;19930;-78
2024/02/29 03:44:07;;;;;;;11.55;4.07;;;;;;;;;;7416205;19;19918;-78
2024/02/29 03:46:54;;;;;;;12.13;4.75;;;;;;;;;;7415374;19;19932;-82
2024/02/29 03:49:41;;;;;;;11.10;5.25;;;;;;;;;;7425549;19;19922;-82
2024/02/29 03:52:26;;;;;;;9.90;4.13;;;;;;;;;;7422165;19;19947;-82
2024/02/29 03:55:13;;;;;;;11.85;6.47;;;;;;;;;;7426094;19;20260;-82
2024/02/29 03:57:59;;;;;;;9.70;4.43;;;;;;;;;;7423124;19;19990;-82
2024/02/29 04:00:51;;;;;;;14.07;4.68;;;;;;;;;;7424819;19;19919;-81
2024/02/29 04:03:35;;;;;;;11.45;4.53;;;;;;;;;;7425342;19;19946;-81
2024/02/29 04:06:19;;;;;;;16.30;4.97;;;;;;;;;;7424542;19;20760;-81
2024/02/29 04:09:05;;;;;;;10.70;4.93;;;;;;;;;;7427008;19;19919;-83
2024/02/29 04:11:49;;;;;;;8.82;3.70;;;;;;;;;;7421560;19;19914;-82
2024/02/29 04:14:39;;;;;;;12.13;4.97;;;;;;;;;;7419088;19;19927;-81
2024/02/29 04:17:26;;;;;;;11.48;5.80;;;;;;;;;;7418596;19;19926;-81
2024/02/29 04:20:13;;;;;;;15.98;6.25;;;;;;;;;;7419885;19;19931;-82
2024/02/29 04:22:57;;;;;;;;;;;;;;;;;;7419575;19;19914;-81
2024/02/29 04:25:41;;;;;;;8.13;3.88;;;;;;;;;;7417929;19;20358;-81
2024/02/29 04:28:27;;;;;;;13.00;5.05;;;;;;;;;;7417782;19;20254;-81
2024/02/29 04:31:14;;;;;;;10.63;4.35;;;;;;;;;;7417962;19;19911;-81
2024/02/29 04:34:03;;;;;;;13.23;5.10;;;;;;;;;;7417117;19;19919;-81
2024/02/29 04:36:47;;;;;;;9.18;4.22;;;;;;;;;;7418933;19;19930;-81
2024/02/29 04:39:34;;;;;;;14.50;5.03;;;;;;;;;;7415804;19;20329;-81
2024/02/29 04:42:18;;;;;;;9.68;4.78;;;;;;;;;;7417985;19;19918;-81
2024/02/29 04:45:03;;;;;;;9.55;4.28;;;;;;;;;;7416626;19;20004;-81
2024/02/29 04:47:47;;;;;;;8.25;3.63;;;;;;;;;;7417426;19;19914;-81
2024/02/29 04:50:34;;;;;;;11.75;4.85;;;;;;;;;;7419220;19;19906;-81
2024/02/29 04:53:19;;;;;;;8.80;4.47;;;;;;;;;;7417160;19;19926;-81
2024/02/29 04:56:06;;;;;;;10.93;4.35;;;;;;;;;;7417616;19;19997;-81
2024/02/29 04:58:55;;;;;;;13.90;4.90;;;;;;;;;;7418517;19;19914;-81
2024/02/29 05:01:39;;;;;;;9.77;4.05;;;;;;;;;;7418155;19;19977;-81
2024/02/29 05:04:25;;;;;;;8.20;4.05;;;;;;;;;;7418544;19;19925;-81
2024/02/29 05:07:15;;;;;;;9.55;4.80;;;;;;;;;;7417725;19;19910;-81
2024/02/29 05:10:00;;;;;;;11.95;4.25;;;;;;;;;;7419392;19;20414;-81
2024/02/29 05:12:50;;;;;;;11.52;5.22;;;;;;;;;;7416511;19;19922;-81
2024/02/29 05:15:38;;;;;;;12.75;4.55;;;;;;;;;;7416607;19;19922;-81
2024/02/29 05:18:26;;;;;;;9.68;3.67;;;;;;;;;;7416527;19;19922;-81
2024/02/29 05:21:25;;;;;;;11.68;4.13;;;;;;;;;;7419242;19;19919;-81
2024/02/29 05:24:12;;;;;;;12.13;5.38;;;;;;;;;;7417731;19;20003;-81
2024/02/29 05:26:56;;;;;;;8.65;3.95;;;;;;;;;;7416605;19;20335;-81
2024/02/29 05:29:43;;;;;;;14.38;4.57;;;;;;;;;;7418794;19;19926;-81
2024/02/29 05:32:31;;;;;;;7.43;3.60;;;;;;;;;;7417444;19;19930;-81
2024/02/29 05:35:22;;;;;;;9.18;4.00;;;;;;;;;;7418116;19;19918;-81
2024/02/29 05:38:09;;;;;;;14.40;4.38;;;;;;;;;;7415439;19;20275;-81
2024/02/29 05:40:59;;;;;;;8.90;3.85;;;;;;;;;;7417234;19;19907;-81
2024/02/29 05:43:45;;;;;;;7.88;4.57;;;;;;;;;;7417658;19;20367;-81
2024/02/29 05:46:33;;;;;;;8.10;3.63;;;;;;;;;;7415389;19;19931;-81
2024/02/29 05:49:22;;;;;;;12.55;4.45;;;;;;;;;;7418601;19;19925;-81
2024/02/29 05:52:11;;;;;;;9.98;3.95;;;;;;;;;;7417640;19;19911;-81
2024/02/29 05:55:01;;;;;;;13.25;4.53;;;;;;;;;;7413315;19;19915;-81
2024/02/29 05:57:47;;;;;;;12.90;5.25;;;;;;;;;;7414993;19;19930;-81
2024/02/29 06:00:37;;;;;;;14.20;5.32;;;;;;;;;;7417180;19;19914;-81
2024/02/29 06:03:24;;;;;;;10.85;4.95;;;;;;;;;;7416018;19;19918;-81
2024/02/29 06:06:12;;;;;;;12.65;5.63;;;;;;;;;;7418180;19;19923;-81
2024/02/29 06:08:56;;;;;;;23.20;6.25;;;;;;;;;;7413748;19;19919;-81
2024/02/29 06:11:43;;;;;;;11.30;4.75;;;;;;;;;;7415566;19;19914;-81
2024/02/29 06:14:30;;;;;;;25.35;4.80;;;;;;;;;;7416125;19;20321;-82
2024/02/29 06:17:17;;;;;;;13.15;5.45;;;;;;;;;;7415563;19;19918;-82
2024/02/29 06:20:10;;;;;;;12.73;4.53;;;;;;;;;;7416987;19;19915;-81
2024/02/29 06:22:58;;;;;;;13.25;5.00;;;;;;;;;;7414368;19;19918;-81
2024/02/29 06:25:46;;;;;;;14.00;4.80;;;;;;;;;;7415353;19;19931;-81
2024/02/29 06:28:33;;;;;;;12.05;4.70;;;;;;;;;;7416610;19;20325;-82
2024/02/29 06:31:20;;;;;;;11.65;4.50;;;;;;;;;;7415162;19;20286;-82
2024/02/29 06:34:05;;;;;;;11.90;4.18;;;;;;;;;;7414678;19;20341;-81
2024/02/29 06:36:54;;;;;;;11.20;4.93;;;;;;;;;;7412000;19;19922;-81
2024/02/29 06:39:38;;;;;;;11.82;4.30;;;;;;;;;;7412315;19;19919;-81
2024/02/29 06:42:25;;;;;;;17.42;4.45;;;;;;;;;;7412629;19;19915;-81
2024/02/29 06:45:10;;;;;;;12.23;4.65;;;;;;;;;;7412708;19;20260;-81
2024/02/29 06:47:57;;;;;;;16.88;4.72;;;;;;;;;;7413632;19;19911;-81
2024/02/29 06:50:43;;;;;;;16.42;5.50;;;;;;;;;;7411339;19;19914;-81
2024/02/29 06:53:31;;;;;;;14.07;5.30;;;;;;;;;;7413627;19;19919;-81
2024/02/29 06:56:21;;;;;;;10.18;4.55;;;;;;;;;;7413942;19;19915;-81
2024/02/29 06:59:07;;;;;;;11.10;4.43;;;;;;;;;;7415836;19;19926;-81
2024/02/29 07:01:51;;;;;;;;;;;;;;;;;;7416115;19;20907;-81
2024/02/29 07:04:38;;;;;;;10.98;4.38;;;;;;;;;;7415777;19;19929;-81
2024/02/29 07:07:24;;;;;;;10.02;3.78;;;;;;;;;;7416051;19;20315;-83
2024/02/29 07:10:12;;;;;;;11.48;5.47;;;;;;;;;;7421910;19;19918;-83
2024/02/29 07:12:57;;;;;;;12.75;5.22;;;;;;;;;;7420137;19;19958;-82
2024/02/29 07:15:43;;;;;;;15.07;5.50;;;;;;;;;;7423423;19;19915;-82
2024/02/29 07:18:30;;;;;;;10.75;4.60;;;;;;;;;;7421120;19;19978;-82
2024/02/29 07:21:19;;;;;;;15.95;5.40;;;;;;;;;;7421996;19;19918;-81
2024/02/29 07:24:05;;;;;;;25.08;5.78;;;;;;;;;;7411127;19;19998;-82
2024/02/29 07:26:51;;;;;;;13.73;5.20;;;;;;;;;;7420531;19;20308;-82
2024/02/29 07:29:38;;;;;;;21.30;5.68;;;;;;;;;;7422667;19;19918;-82
2024/02/29 07:32:24;;;;;;;13.77;5.70;;;;;;;;;;7419012;19;19915;-82
2024/02/29 07:35:17;;;;;;;11.30;4.70;;;;;;;;;;7421528;19;19926;-82
2024/02/29 07:38:07;;;;;;;18.33;5.68;;;;;;;;;;7417605;19;19919;-82
2024/02/29 07:40:54;;;;;;;11.38;4.45;;;;;;;;;;7420711;19;19934;-83
2024/02/29 07:43:38;;;;;;;;;;;;;;;;;;7421111;19;20333;-83
2024/02/29 07:46:22;;;;;;;8.65;5.00;;;;;;;;;;7417776;19;19918;-83
2024/02/29 07:49:08;;;;;;;15.30;4.75;;;;;;;;;;7418477;19;19919;-82
2024/02/29 07:51:54;;;;;;;14.00;5.40;;;;;;;;;;7420423;19;19931;-83
2024/02/29 07:54:43;;;;;;;17.40;6.25;;;;;;;;;;7421775;19;20236;-83
2024/02/29 07:57:27;;;;;;;11.13;5.60;;;;;;;;;;7417431;19;19936;-83
2024/02/29 08:00:12;;;;;;;11.95;5.93;;;;;;;;;;7420850;19;19906;-83
2024/02/29 08:02:59;;;;;;;12.50;5.57;;;;;;;;;;7420909;19;19936;-83
2024/02/29 08:05:44;;;;;;;13.07;5.78;;;;;;;;;;7420546;19;19918;-83
2024/02/29 08:08:28;;;;;;;15.15;6.50;;;;;;;;;;7419411;19;19919;-82
2024/02/29 08:11:20;;;;;;;11.93;5.22;;;;;;;;;;7420755;19;19950;-82
2024/02/29 08:14:04;;;;;;;12.77;5.38;;;;;;;;;;7420921;19;19919;-82
2024/02/29 08:16:49;;;;;;;11.57;5.28;;;;;;;;;;7418927;19;20282;-82
2024/02/29 08:19:33;;;;;;;16.90;6.45;;;;;;;;;;7419961;19;20244;-82
2024/02/29 08:22:18;;;;;;;14.57;6.18;;;;;;;;;;7418952;19;19919;-82
2024/02/29 08:25:02;;;;;;;13.68;6.32;;;;;;;;;;7419859;19;20388;-82
2024/02/29 08:27:49;;;;;;;14.48;6.03;;;;;;;;;;7417627;19;19922;-82
2024/02/29 08:30:36;;;;;;;16.30;6.78;;;;;;;;;;7418464;19;20282;-82
2024/02/29 08:33:20;;;;;;;19.27;6.22;;;;;;;;;;7420555;19;19932;-82
2024/02/29 08:36:05;;;;;;;16.55;7.07;;;;;;;;;;7421736;19;19919;-82
2024/02/29 08:38:55;;;;;;;15.88;6.13;;;;;;;;;;7419796;19;19970;-82
2024/02/29 08:41:39;;;;;;;16.13;6.53;;;;;;;;;;7419992;19;19914;-82
2024/02/29 08:44:31;;;;;;;16.27;6.85;;;;;;;;;;7421786;19;19914;-82
2024/02/29 08:47:20;;;;;;;14.90;6.60;;;;;;;;;;7418410;19;19918;-82
2024/02/29 08:50:05;;;;;;;13.70;5.95;;;;;;;;;;7419293;19;19926;-82
2024/02/29 08:52:53;;;;;;;14.95;6.35;;;;;;;;;;7420276;19;19914;-82
2024/02/29 08:55:37;;;;;;;15.55;6.90;;;;;;;;;;7420510;19;19927;-82
2024/02/29 08:58:21;;;;;;;14.10;6.78;;;;;;;;;;7421731;19;19914;-82
2024/02/29 09:01:11;;;;;;;21.98;7.07;;;;;;;;;;7418510;19;19990;-82
2024/02/29 09:03:55;;;;;;;16.65;7.10;;;;;;;;;;7420198;19;19947;-82
2024/02/29 09:06:45;;;;;;;18.02;6.90;;;;;;;;;;7419303;19;20012;-82
2024/02/29 09:09:30;;;;;;;18.98;7.65;;;;;;;;;;7418092;19;19918;-82
2024/02/29 09:12:17;;;;;;;14.00;6.70;;;;;;;;;;7417427;19;19937;-82
2024/02/29 09:15:07;;;;;;;20.52;7.55;;;;;;;;;;7419955;19;20340;-81
2024/02/29 09:17:54;;;;;;;15.70;8.00;;;;;;;;;;7417790;19;19919;-82
2024/02/29 09:20:38;;;;;;;19.65;8.40;;;;;;;;;;7417733;19;19927;-82
2024/02/29 09:23:22;;;;;;;17.10;7.72;;;;;;;;;;7419035;19;19958;-82
2024/02/29 09:26:16;;;;;;;21.92;9.43;;;;;;;;;;7418249;19;19978;-82
2024/02/29 09:29:00;;;;;;;24.48;8.85;;;;;;;;;;7419177;19;19911;-81
2024/02/29 09:31:45;;;;;;;26.85;11.15;;;;;;;;;;7419308;19;19918;-81
2024/02/29 09:34:34;;;;;;;25.70;11.18;;;;;;;;;;7419027;19;19906;-82
2024/02/29 09:37:21;;;;;;;25.83;11.30;;;;;;;;;;7420224;19;19978;-82
2024/02/29 09:40:06;;;;;;;24.10;9.88;;;;;;;;;;7417178;19;20016;-81
2024/02/29 09:42:55;;;;;;;28.77;10.18;;;;;;;;;;7417462;19;19925;-82
2024/02/29 09:45:44;;;;;;;28.38;10.45;;;;;;;;;;7418366;19;19939;-82
2024/02/29 09:48:32;;;;;;;29.70;12.23;;;;;;;;;;7411858;19;19933;-82
2024/02/29 09:51:23;;;;;;;26.25;10.65;;;;;;;;;;7412444;19;19974;-82
2024/02/29 09:54:18;;;;;;;28.00;10.60;;;;;;;;;;7406111;19;19978;-82
2024/02/29 09:57:03;;;;;;;31.95;12.95;;;;;;;;;;7410579;19;19915;-82
2024/02/29 09:59:48;;;;;;;28.80;13.02;;;;;;;;;;7414165;19;19910;-82
2024/02/29 10:02:32;;;;;;;26.70;11.32;;;;;;;;;;7409227;19;19922;-82
2024/02/29 10:05:21;;;;;;;28.08;11.40;;;;;;;;;;7405502;19;19923;-82
2024/02/29 10:08:13;;;;;;;24.52;11.57;;;;;;;;;;7420216;19;19926;-80
2024/02/29 10:10:58;;;;;;;27.58;11.68;;;;;;;;;;7423079;19;19910;-80
2024/02/29 10:13:43;;;;;;;25.80;12.45;;;;;;;;;;7423240;19;19959;-80
2024/02/29 10:16:27;;;;;;;26.83;11.80;;;;;;;;;;7422924;19;20316;-80
2024/02/29 10:19:14;;;;;;;28.75;11.30;;;;;;;;;;7425361;19;19922;-80
2024/02/29 10:22:00;;;;;;;26.95;12.38;;;;;;;;;;7424481;19;19915;-80
2024/02/29 10:24:54;;;;;;;30.45;11.55;;;;;;;;;;7425615;19;19911;-80
2024/02/29 10:27:39;;;;;;;27.60;12.05;;;;;;;;;;7422026;19;19915;-81
2024/02/29 10:30:23;;;;;;;27.85;11.93;;;;;;;;;;7423885;19;19919;-80
2024/02/29 10:33:13;;;;;;;27.90;11.73;;;;;;;;;;7424340;19;19926;-81
2024/02/29 10:36:00;;;;;;;;;;;;;;;;;;7424085;19;19919;-81
2024/02/29 10:38:49;;;;;;;27.55;11.00;;;;;;;;;;7422505;19;20257;-81
2024/02/29 10:41:40;;;;;;;28.42;12.32;;;;;;;;;;7421816;19;19934;-80
2024/02/29 10:44:33;;;;;;;26.75;11.90;;;;;;;;;;7421552;19;19922;-81
2024/02/29 10:47:21;;;;;;;27.95;11.27;;;;;;;;;;7422447;19;19919;-81
2024/02/29 10:50:14;;;;;;;31.38;12.40;;;;;;;;;;7423601;19;19933;-81
2024/02/29 10:53:13;;;;;;;30.27;12.27;;;;;;;;;;7422729;19;19911;-81
2024/02/29 10:56:03;;;;;;;27.48;11.70;;;;;;;;;;7422346;19;20300;-79
2024/02/29 10:59:03;;;;;;;28.02;12.27;;;;;;;;;;7414385;19;19915;-79
2024/02/29 11:01:58;;;;;;;31.20;11.70;;;;;;;;;;7410267;19;19918;-79
2024/02/29 11:04:48;;;;;;;27.25;11.75;;;;;;;;;;7413207;19;19926;-79
2024/02/29 11:07:35;;;;;;;27.95;12.68;;;;;;;;;;7408958;19;19918;-79
2024/02/29 11:10:19;;;;;;;24.42;11.77;;;;;;;;;;7406733;19;19918;-78
2024/02/29 11:13:06;;;;;;;31.30;12.93;;;;;;;;;;7411777;19;19926;-78
2024/02/29 11:15:57;;;;;;;26.23;12.18;;;;;;;;;;7416778;19;20211;-79
2024/02/29 11:18:47;;;;;;;25.63;11.98;;;;;;;;;;7416162;19;19914;-79
2024/02/29 11:21:32;;;;;;;28.58;11.05;;;;;;;;;;7417395;19;19937;-79
2024/02/29 11:24:22;;;;;;;25.25;12.23;;;;;;;;;;7416271;19;19979;-79
2024/02/29 11:27:11;;;;;;;26.90;11.27;;;;;;;;;;7416747;19;19922;-79
2024/02/29 11:30:01;;;;;;;27.40;10.73;;;;;;;;;;7418090;19;20564;-79
2024/02/29 11:32:51;;;;;;;24.35;11.80;;;;;;;;;;7415831;19;20380;-79
2024/02/29 11:35:39;;;;;;;21.23;9.88;;;;;;;;;;7413861;19;19956;-79
2024/02/29 11:38:27;;;;;;;23.20;10.40;;;;;;;;;;7408074;19;19921;-79
2024/02/29 11:41:18;;;;;;;22.00;10.10;;;;;;;;;;7411263;19;19930;-79
2024/02/29 11:44:02;;;;;;;24.98;11.13;;;;;;;;;;7408896;19;19914;-79
2024/02/29 11:46:49;;;;;;;23.38;9.95;;;;;;;;;;7408966;19;19921;-79
2024/02/29 11:49:39;;;;;;;21.77;10.07;;;;;;;;;;7411688;19;19918;-82
2024/02/29 11:52:23;;;;;;;21.15;10.00;;;;;;;;;;7419498;19;19927;-80
2024/02/29 11:55:10;;;;;;;22.20;10.48;;;;;;;;;;7417373;19;19914;-80
2024/02/29 11:57:57;;;;;;;22.20;9.93;;;;;;;;;;7416677;19;19907;-80
2024/02/29 12:00:41;;;;;;;19.05;10.00;;;;;;;;;;7427601;19;19918;-79
2024/02/29 12:03:27;;;;;;;20.50;9.50;;;;;;;;;;7418604;19;19914;-79
2024/02/29 12:06:14;;;;;;;18.05;7.93;;;;;;;;;;7417752;19;19956;-79
2024/02/29 12:08:59;;;;;;;18.88;8.30;;;;;;;;;;7418486;19;19907;-79
2024/02/29 12:11:45;;;;;;;20.33;8.68;;;;;;;;;;7421150;19;19922;-79
2024/02/29 12:14:35;;;;;;;19.17;8.90;;;;;;;;;;7418650;19;19915;-79
2024/02/29 12:17:26;;;;;;;23.17;9.30;;;;;;;;;;7416844;19;19919;-79
2024/02/29 12:20:16;;;;;;;19.50;9.05;;;;;;;;;;7417681;19;20330;-79
2024/02/29 12:23:07;;;;;;;23.77;10.27;;;;;;;;;;7415849;19;19910;-79
2024/02/29 12:25:54;;;;;;;18.65;9.57;;;;;;;;;;7419570;19;19918;-79
2024/02/29 12:28:41;;;;;;;17.50;9.05;;;;;;;;;;7418413;19;19922;-79
2024/02/29 12:31:28;;;;;;;19.70;8.88;;;;;;;;;;7420218;19;19907;-79
2024/02/29 12:34:18;;;;;;;23.85;10.20;;;;;;;;;;7416932;19;19915;-79
2024/02/29 12:37:11;;;;;;;21.38;10.32;;;;;;;;;;7418316;19;19947;-79
2024/02/29 12:40:01;;;;;;;22.35;9.65;;;;;;;;;;7420320;19;20333;-79
2024/02/29 12:42:48;;;;;;;25.88;10.93;;;;;;;;;;7419168;19;19919;-79
2024/02/29 12:45:33;;;;;;;23.40;11.68;;;;;;;;;;7418195;19;20350;-79
2024/02/29 12:48:17;;;;;;;21.90;10.27;;;;;;;;;;7415309;19;20316;-79
2024/02/29 12:51:01;;;;;;;21.98;9.75;;;;;;;;;;7418324;19;20255;-79
2024/02/29 12:53:48;;;;;;;20.58;9.55;;;;;;;;;;7418316;19;19927;-79
2024/02/29 12:56:39;;;;;;;18.42;8.63;;;;;;;;;;7416917;19;19917;-79
2024/02/29 12:59:27;;;;;;;17.17;8.20;;;;;;;;;;7419722;19;19941;-79
2024/02/29 13:02:13;;;;;;;21.48;9.48;;;;;;;;;;7416193;19;19935;-79
2024/02/29 13:05:03;;;;;;;19.60;9.25;;;;;;;;;;7418075;19;19914;-79
2024/02/29 13:07:47;;;;;;;21.92;10.82;;;;;;;;;;7414741;19;19915;-79
2024/02/29 13:10:34;;;;;;;25.48;10.88;;;;;;;;;;7415612;19;19962;-79
2024/02/29 13:13:23;;;;;;;21.42;10.32;;;;;;;;;;7417962;19;19915;-79
2024/02/29 13:16:08;;;;;;;21.42;9.93;;;;;;;;;;7418388;19;19922;-79
2024/02/29 13:18:54;;;;;;;25.00;9.95;;;;;;;;;;7418660;19;19914;-79
2024/02/29 13:21:41;;;;;;;17.73;9.10;;;;;;;;;;7416386;19;19922;-79
2024/02/29 13:24:25;;;;;;;23.60;9.95;;;;;;;;;;7416448;19;20020;-79
2024/02/29 13:27:09;;;;;;;21.05;9.50;;;;;;;;;;7416423;19;20273;-79
2024/02/29 13:29:58;;;;;;;19.42;10.45;;;;;;;;;;7414960;19;19911;-79
2024/02/29 13:32:47;;;;;;;22.10;9.32;;;;;;;;;;7416451;19;19921;-79
2024/02/29 13:35:34;;;;;;;22.58;10.40;;;;;;;;;;7417786;19;19930;-79
2024/02/29 13:38:21;;;;;;;22.63;10.27;;;;;;;;;;7412134;19;19925;-79
2024/02/29 13:41:06;;;;;;;20.35;9.77;;;;;;;;;;7417472;19;19920;-79
2024/02/29 13:43:52;;;;;;;19.75;10.35;;;;;;;;;;7416544;19;20300;-79
2024/02/29 13:46:39;;;;;;;19.35;10.02;;;;;;;;;;7415079;19;19960;-79
2024/02/29 13:49:26;;;;;;;24.30;10.95;;;;;;;;;;7415710;19;19951;-79
2024/02/29 13:52:16;;;;;;;22.38;9.85;;;;;;;;;;7416894;19;19951;-79
2024/02/29 13:55:03;;;;;;;26.38;11.18;;;;;;;;;;7418058;19;19974;-79
2024/02/29 13:57:51;;;;;;;23.30;10.73;;;;;;;;;;7414551;19;19929;-79
2024/02/29 14:00:35;;;;;;;24.35;10.18;;;;;;;;;;7415679;19;19925;-79
2024/02/29 14:03:24;;;;;;;21.10;9.82;;;;;;;;;;7414353;19;19915;-79
2024/02/29 14:06:11;;;;;;;23.92;10.88;;;;;;;;;;7416882;19;20319;-79
2024/02/29 14:09:00;;;;;;;25.25;10.98;;;;;;;;;;7413814;19;20356;-79
2024/02/29 14:11:45;;;;;;;22.70;9.32;;;;;;;;;;7416264;19;19929;-80
2024/02/29 14:14:29;;;;;;;22.67;10.80;;;;;;;;;;7414478;19;19914;-79
2024/02/29 14:17:16;;;;;;;22.13;9.63;;;;;;;;;;7412357;19;19922;-79
2024/02/29 14:20:03;;;;;;;24.52;10.25;;;;;;;;;;7415312;19;19913;-79
2024/02/29 14:22:49;;;;;;;21.90;9.80;;;;;;;;;;7414209;19;19914;-80
2024/02/29 14:25:34;;;;;;;23.65;10.93;;;;;;;;;;7416533;19;19922;-80
2024/02/29 14:28:22;;;;;;;19.33;8.88;;;;;;;;;;7413594;19;19974;-79
2024/02/29 14:31:06;;;;;;;20.95;9.85;;;;;;;;;;7415279;19;19910;-79
2024/02/29 14:33:53;;;;;;;22.75;10.38;;;;;;;;;;7414013;19;19918;-79
2024/02/29 14:36:40;;;;;;;23.15;9.38;;;;;;;;;;7415969;19;20348;-79
2024/02/29 14:39:24;;;;;;;19.88;9.57;;;;;;;;;;7415089;19;20243;-79
2024/02/29 14:42:09;;;;;;;20.45;9.65;;;;;;;;;;7414375;19;19917;-79
2024/02/29 14:44:56;;;;;;;18.63;9.60;;;;;;;;;;7414987;19;19947;-79
2024/02/29 14:47:41;;;;;;;19.58;7.93;;;;;;;;;;7414379;19;19962;-79
2024/02/29 14:50:27;;;;;;;17.00;8.70;;;;;;;;;;7411307;19;19918;-79
2024/02/29 14:53:14;;;;;;;20.30;9.73;;;;;;;;;;7412769;19;19915;-79
2024/02/29 14:56:01;;;;;;;20.02;8.30;;;;;;;;;;7414934;19;19922;-79
2024/02/29 14:58:49;;;;;;;18.67;8.45;;;;;;;;;;7413681;19;19918;-79
2024/02/29 15:01:35;;;;;;;20.15;8.60;;;;;;;;;;7415062;19;19922;-79
2024/02/29 15:04:24;;;;;;;23.10;9.18;;;;;;;;;;7413979;19;19922;-79
2024/02/29 15:07:09;;;;;;;19.33;8.50;;;;;;;;;;7413043;19;19936;-79
2024/02/29 15:09:58;;;;;;;17.38;9.20;;;;;;;;;;7410370;19;20341;-79
2024/02/29 15:12:43;;;;;;;16.77;7.80;;;;;;;;;;7410746;19;19931;-79
2024/02/29 15:15:33;;;;;;;14.90;7.32;;;;;;;;;;7412306;19;19922;-79
2024/02/29 15:18:19;;;;;;;20.45;8.27;;;;;;;;;;7410531;19;19919;-79
2024/02/29 15:21:07;;;;;;;17.40;7.13;;;;;;;;;;7413399;19;21424;-79
2024/02/29 15:23:51;;;;;;;19.15;7.88;;;;;;;;;;7410990;19;19925;-79
2024/02/29 15:26:39;;;;;;;16.23;7.18;;;;;;;;;;7411404;19;19950;-79
2024/02/29 15:29:26;;;;;;;17.98;7.82;;;;;;;;;;7420468;19;19915;-79
2024/02/29 15:32:15;;;;;;;18.17;8.55;;;;;;;;;;7419471;19;19936;-79
2024/02/29 15:34:59;;;;;;;19.27;9.02;;;;;;;;;;7417420;19;20597;-79
2024/02/29 15:37:43;;;;;;;18.05;8.88;;;;;;;;;;7414230;19;19973;-79
2024/02/29 15:40:28;;;;;;;20.35;9.20;;;;;;;;;;7416540;19;19914;-79
2024/02/29 15:43:17;;;;;;;17.50;7.63;;;;;;;;;;7414536;19;19949;-79
2024/02/29 15:46:02;;;;;;;16.40;8.15;;;;;;;;;;7411702;19;20265;-79
2024/02/29 15:48:46;;;;;;;19.23;9.25;;;;;;;;;;7418580;19;20318;-84
2024/02/29 15:51:33;;;;;;;20.05;8.85;;;;;;;;;;7422630;19;19910;-84
2024/02/29 15:54:17;;;;;;;18.35;8.27;;;;;;;;;;7421437;19;19933;-84
2024/02/29 15:57:05;;;;;;;20.77;8.73;;;;;;;;;;7419871;19;19918;-84
2024/02/29 15:59:55;;;;;;;19.55;7.55;;;;;;;;;;7424432;19;19943;-84
2024/02/29 16:02:42;;;;;;;19.27;8.82;;;;;;;;;;7419275;19;19948;-81
2024/02/29 16:05:29;;;;;;;17.00;7.82;;;;;;;;;;7418318;19;20469;-82
2024/02/29 16:08:15;;;;;;;19.67;8.80;;;;;;;;;;7418588;19;19919;-82
2024/02/29 16:11:05;;;;;;;17.17;7.65;;;;;;;;;;7418153;19;19929;-82
2024/02/29 16:13:50;;;;;;;17.20;8.52;;;;;;;;;;7418833;19;19906;-82
2024/02/29 16:16:39;;;;;;;10.45;5.15;;;;;;;;;;7416333;19;20269;-78
2024/02/29 16:19:25;;;;;;;14.70;6.35;;;;;;;;;;7411209;19;20329;-77
2024/02/29 16:22:12;;;;;;;16.58;8.23;;;;;;;;;;7409731;19;19929;-78
2024/02/29 16:24:56;;;;;;;19.45;7.95;;;;;;;;;;7408470;19;20620;-77
2024/02/29 16:27:40;;;;;;;18.85;8.95;;;;;;;;;;7409221;19;19918;-77
2024/02/29 16:30:28;;;;;;;18.17;8.00;;;;;;;;;;7406821;19;19926;-78